sensor_id;sensor_type;location;lat;lon;timestamp;pressure;altitude;pressure_sealevel;temperature;humidity
23339;BME280;11841;49.368;20.962;2023-04-07T00:01:45;95390.88;;;1.98;83.01
23339;BME280;11841;49.368;20.962;2023-04-07T00:04:30;95390.25;;;1.96;82.87
23339;BME280;11841;49.368;20.962;2023-04-07T00:07:15;95390.25;;;1.96;82.79
23339;BME280;11841;49.368;20.962;2023-04-07T00:10:01;95385.97;;;1.95;82.62
23339;BME280;11841;49.368;20.962;2023-04-07T00:12:46;95384.38;;;1.94;82.85
23339;BME280;11841;49.368;20.962;2023-04-07T00:15:31;95385.50;;;1.92;82.77
23339;BME280;11841;49.368;20.962;2023-04-07T00:18:16;95382.09;;;1.91;83.26
23339;BME280;11841;49.368;20.962;2023-04-07T00:21:01;95385.38;;;1.85;83.45
23339;BME280;11841;49.368;20.962;2023-04-07T00:23:47;95375.75;;;1.86;84.11
23339;BME280;11841;49.368;20.962;2023-04-07T00:26:32;95365.75;;;1.89;83.76
23339;BME280;11841;49.368;20.962;2023-04-07T00:29:17;95367.19;;;1.92;83.89
23339;BME280;11841;49.368;20.962;2023-04-07T00:32:03;95358.22;;;1.94;84.02
23339;BME280;11841;49.368;20.962;2023-04-07T00:34:48;95354.28;;;1.98;83.70
23339;BME280;11841;49.368;20.962;2023-04-07T00:37:33;95356.25;;;1.96;83.80
23339;BME280;11841;49.368;20.962;2023-04-07T00:40:19;95342.19;;;1.97;84.20
23339;BME280;11841;49.368;20.962;2023-04-07T00:43:05;95350.66;;;1.99;83.90
23339;BME280;11841;49.368;20.962;2023-04-07T00:45:51;95337.59;;;1.99;83.71
23339;BME280;11841;49.368;20.962;2023-04-07T00:48:37;95345.09;;;2.02;83.70
23339;BME280;11841;49.368;20.962;2023-04-07T00:51:22;95356.19;;;2.04;83.49
23339;BME280;11841;49.368;20.962;2023-04-07T00:54:08;95367.97;;;2.00;84.02
23339;BME280;11841;49.368;20.962;2023-04-07T00:56:53;95372.06;;;2.03;84.30
23339;BME280;11841;49.368;20.962;2023-04-07T00:59:38;95379.38;;;2.07;84.30
23339;BME280;11841;49.368;20.962;2023-04-07T01:05:20;95389.50;;;2.10;84.11
23339;BME280;11841;49.368;20.962;2023-04-07T01:14:23;95365.34;;;2.08;84.39
23339;BME280;11841;49.368;20.962;2023-04-07T01:17:09;95358.13;;;2.10;84.33
23339;BME280;11841;49.368;20.962;2023-04-07T01:20:01;95345.69;;;2.12;84.34
23339;BME280;11841;49.368;20.962;2023-04-07T01:22:57;95352.53;;;2.13;84.43
23339;BME280;11841;49.368;20.962;2023-04-07T01:25:59;95355.34;;;2.12;84.11
23339;BME280;11841;49.368;20.962;2023-04-07T01:29:33;95352.13;;;2.02;84.35
23339;BME280;11841;49.368;20.962;2023-04-07T01:32:20;95343.47;;;2.01;84.18
23339;BME280;11841;49.368;20.962;2023-04-07T01:35:11;95347.69;;;2.02;84.25
23339;BME280;11841;49.368;20.962;2023-04-07T01:37:58;95353.09;;;2.01;84.94
23339;BME280;11841;49.368;20.962;2023-04-07T01:40:45;95357.88;;;1.97;85.21
23339;BME280;11841;49.368;20.962;2023-04-07T01:43:32;95353.94;;;2.01;85.08
23339;BME280;11841;49.368;20.962;2023-04-07T01:46:18;95356.84;;;2.06;84.61
23339;BME280;11841;49.368;20.962;2023-04-07T01:49:05;95348.00;;;2.07;84.46
23339;BME280;11841;49.368;20.962;2023-04-07T01:51:52;95334.75;;;2.09;84.20
23339;BME280;11841;49.368;20.962;2023-04-07T01:54:38;95341.63;;;2.10;84.62
23339;BME280;11841;49.368;20.962;2023-04-07T01:57:23;95346.03;;;2.09;84.50
23339;BME280;11841;49.368;20.962;2023-04-07T02:00:09;95340.81;;;2.09;84.53
23339;BME280;11841;49.368;20.962;2023-04-07T02:02:58;95340.63;;;2.11;84.87
23339;BME280;11841;49.368;20.962;2023-04-07T02:05:53;95335.22;;;2.12;84.35
23339;BME280;11841;49.368;20.962;2023-04-07T02:08:41;95336.03;;;2.13;84.57
23339;BME280;11841;49.368;20.962;2023-04-07T02:11:30;95334.91;;;2.07;84.67
23339;BME280;11841;49.368;20.962;2023-04-07T02:14:17;95337.91;;;2.04;84.60
23339;BME280;11841;49.368;20.962;2023-04-07T02:17:05;95330.22;;;2.03;84.50
23339;BME280;11841;49.368;20.962;2023-04-07T02:19:51;95331.53;;;1.99;84.99
23339;BME280;11841;49.368;20.962;2023-04-07T02:22:38;95331.38;;;2.00;84.66
23339;BME280;11841;49.368;20.962;2023-04-07T02:25:28;95339.22;;;2.00;84.68
23339;BME280;11841;49.368;20.962;2023-04-07T02:28:14;95342.00;;;1.99;84.92
23339;BME280;11841;49.368;20.962;2023-04-07T02:30:59;95341.38;;;1.97;85.30
23339;BME280;11841;49.368;20.962;2023-04-07T02:33:44;95344.31;;;1.94;86.09
23339;BME280;11841;49.368;20.962;2023-04-07T02:36:29;95338.44;;;1.92;86.04
23339;BME280;11841;49.368;20.962;2023-04-07T02:39:15;95341.72;;;1.94;86.04
23339;BME280;11841;49.368;20.962;2023-04-07T02:42:00;95337.31;;;1.94;86.35
23339;BME280;11841;49.368;20.962;2023-04-07T02:44:46;95341.53;;;1.95;86.64
23339;BME280;11841;49.368;20.962;2023-04-07T02:47:35;95334.69;;;1.94;86.67
23339;BME280;11841;49.368;20.962;2023-04-07T02:50:21;95335.16;;;1.98;86.96
23339;BME280;11841;49.368;20.962;2023-04-07T02:53:06;95339.38;;;1.99;86.86
23339;BME280;11841;49.368;20.962;2023-04-07T02:55:51;95340.38;;;1.98;86.96
23339;BME280;11841;49.368;20.962;2023-04-07T02:58:37;95338.59;;;1.98;86.79
23339;BME280;11841;49.368;20.962;2023-04-07T03:01:22;95332.06;;;1.94;87.57
23339;BME280;11841;49.368;20.962;2023-04-07T03:04:07;95341.53;;;1.95;87.64
23339;BME280;11841;49.368;20.962;2023-04-07T03:06:53;95345.78;;;1.96;88.09
23339;BME280;11841;49.368;20.962;2023-04-07T03:09:39;95337.94;;;1.96;87.98
23339;BME280;11841;49.368;20.962;2023-04-07T03:12:24;95335.81;;;2.00;87.94
23339;BME280;11841;49.368;20.962;2023-04-07T03:15:10;95336.59;;;2.00;87.64
23339;BME280;11841;49.368;20.962;2023-04-07T03:17:55;95334.00;;;2.00;87.73
23339;BME280;11841;49.368;20.962;2023-04-07T03:20:40;95324.19;;;2.02;87.69
23339;BME280;11841;49.368;20.962;2023-04-07T03:23:26;95313.34;;;2.05;87.65
23339;BME280;11841;49.368;20.962;2023-04-07T03:26:13;95316.97;;;2.04;87.84
23339;BME280;11841;49.368;20.962;2023-04-07T03:28:58;95316.63;;;2.07;87.70
23339;BME280;11841;49.368;20.962;2023-04-07T03:31:43;95311.38;;;2.07;87.70
23339;BME280;11841;49.368;20.962;2023-04-07T03:34:29;95303.72;;;2.06;87.88
23339;BME280;11841;49.368;20.962;2023-04-07T03:37:14;95303.63;;;1.99;88.05
23339;BME280;11841;49.368;20.962;2023-04-07T03:40:00;95302.31;;;1.95;88.49
23339;BME280;11841;49.368;20.962;2023-04-07T03:42:45;95313.59;;;1.96;88.76
23339;BME280;11841;49.368;20.962;2023-04-07T03:45:32;95323.22;;;1.95;88.66
23339;BME280;11841;49.368;20.962;2023-04-07T03:48:18;95328.13;;;1.98;89.05
23339;BME280;11841;49.368;20.962;2023-04-07T03:51:03;95316.31;;;2.02;88.74
23339;BME280;11841;49.368;20.962;2023-04-07T03:53:48;95321.19;;;2.05;88.55
23339;BME280;11841;49.368;20.962;2023-04-07T03:56:33;95317.63;;;2.06;88.44
23339;BME280;11841;49.368;20.962;2023-04-07T03:59:19;95327.44;;;2.04;88.23
23339;BME280;11841;49.368;20.962;2023-04-07T04:02:04;95329.41;;;2.02;88.57
23339;BME280;11841;49.368;20.962;2023-04-07T04:04:49;95336.28;;;2.03;88.97
23339;BME280;11841;49.368;20.962;2023-04-07T04:07:35;95332.31;;;2.07;88.69
23339;BME280;11841;49.368;20.962;2023-04-07T04:10:20;95329.50;;;2.09;88.93
23339;BME280;11841;49.368;20.962;2023-04-07T04:13:05;95334.59;;;2.10;88.62
23339;BME280;11841;49.368;20.962;2023-04-07T04:15:51;95332.31;;;2.07;88.92
23339;BME280;11841;49.368;20.962;2023-04-07T04:18:37;95331.97;;;2.10;88.75
23339;BME280;11841;49.368;20.962;2023-04-07T04:21:22;95330.97;;;2.11;88.85
23339;BME280;11841;49.368;20.962;2023-04-07T04:24:07;95332.59;;;2.12;88.66
23339;BME280;11841;49.368;20.962;2023-04-07T04:26:52;95342.09;;;2.13;88.60
23339;BME280;11841;49.368;20.962;2023-04-07T04:29:38;95342.44;;;2.10;88.52
23339;BME280;11841;49.368;20.962;2023-04-07T04:32:23;95344.88;;;2.12;88.42
23339;BME280;11841;49.368;20.962;2023-04-07T04:35:09;95345.69;;;2.12;88.22
23339;BME280;11841;49.368;20.962;2023-04-07T04:37:54;95343.94;;;2.05;88.99
23339;BME280;11841;49.368;20.962;2023-04-07T04:40:39;95348.34;;;2.04;88.64
23339;BME280;11841;49.368;20.962;2023-04-07T04:43:24;95346.38;;;2.06;88.91
23339;BME280;11841;49.368;20.962;2023-04-07T04:46:10;95344.41;;;2.08;88.74
23339;BME280;11841;49.368;20.962;2023-04-07T04:48:55;95351.25;;;2.09;88.63
23339;BME280;11841;49.368;20.962;2023-04-07T04:51:40;95347.81;;;2.09;88.63
23339;BME280;11841;49.368;20.962;2023-04-07T04:54:26;95341.69;;;2.02;89.26
23339;BME280;11841;49.368;20.962;2023-04-07T04:57:11;95349.06;;;1.98;89.07
23339;BME280;11841;49.368;20.962;2023-04-07T04:59:56;95348.41;;;1.96;88.81
23339;BME280;11841;49.368;20.962;2023-04-07T05:02:42;95371.59;;;1.99;88.56
23339;BME280;11841;49.368;20.962;2023-04-07T05:05:28;95370.59;;;2.00;88.85
23339;BME280;11841;49.368;20.962;2023-04-07T05:08:13;95375.19;;;1.98;88.95
23339;BME280;11841;49.368;20.962;2023-04-07T05:10:58;95377.47;;;2.01;88.95
23339;BME280;11841;49.368;20.962;2023-04-07T05:13:43;95376.13;;;2.05;88.72
23339;BME280;11841;49.368;20.962;2023-04-07T05:16:28;95367.31;;;2.06;89.21
23339;BME280;11841;49.368;20.962;2023-04-07T05:19:14;95364.50;;;2.08;88.84
23339;BME280;11841;49.368;20.962;2023-04-07T05:21:59;95371.34;;;2.09;88.51
23339;BME280;11841;49.368;20.962;2023-04-07T05:24:44;95372.19;;;2.09;88.90
23339;BME280;11841;49.368;20.962;2023-04-07T05:27:30;95378.59;;;2.07;89.22
23339;BME280;11841;49.368;20.962;2023-04-07T05:30:15;95382.50;;;2.03;89.94
23339;BME280;11841;49.368;20.962;2023-04-07T05:33:00;95369.28;;;2.04;89.68
23339;BME280;11841;49.368;20.962;2023-04-07T05:35:46;95374.16;;;2.07;89.51
23339;BME280;11841;49.368;20.962;2023-04-07T05:38:31;95376.81;;;1.99;90.15
23339;BME280;11841;49.368;20.962;2023-04-07T05:41:16;95382.03;;;1.99;91.03
23339;BME280;11841;49.368;20.962;2023-04-07T05:44:01;95368.13;;;2.07;90.83
23339;BME280;11841;49.368;20.962;2023-04-07T05:46:47;95371.81;;;2.12;90.74
23339;BME280;11841;49.368;20.962;2023-04-07T05:49:39;95356.78;;;2.14;90.88
23339;BME280;11841;49.368;20.962;2023-04-07T05:52:30;95368.53;;;2.18;90.69
23339;BME280;11841;49.368;20.962;2023-04-07T05:55:15;95373.41;;;2.21;90.21
23339;BME280;11841;49.368;20.962;2023-04-07T05:58:00;95356.38;;;2.25;90.32
23339;BME280;11841;49.368;20.962;2023-04-07T06:00:45;95364.53;;;2.30;89.76
23339;BME280;11841;49.368;20.962;2023-04-07T06:03:31;95375.97;;;2.29;90.41
23339;BME280;11841;49.368;20.962;2023-04-07T06:06:17;95375.91;;;2.15;91.02
23339;BME280;11841;49.368;20.962;2023-04-07T06:09:02;95376.47;;;2.02;92.26
23339;BME280;11841;49.368;20.962;2023-04-07T06:11:50;95388.59;;;1.95;92.58
23339;BME280;11841;49.368;20.962;2023-04-07T06:14:35;95382.69;;;2.01;92.49
23339;BME280;11841;49.368;20.962;2023-04-07T06:17:21;95384.28;;;2.10;92.90
23339;BME280;11841;49.368;20.962;2023-04-07T06:20:07;95373.59;;;2.20;92.00
23339;BME280;11841;49.368;20.962;2023-04-07T06:22:53;95377.13;;;2.27;92.01
23339;BME280;11841;49.368;20.962;2023-04-07T06:25:39;95369.75;;;2.30;91.67
23339;BME280;11841;49.368;20.962;2023-04-07T06:28:24;95380.53;;;2.27;92.17
23339;BME280;11841;49.368;20.962;2023-04-07T06:31:10;95385.50;;;2.22;92.15
23339;BME280;11841;49.368;20.962;2023-04-07T06:33:55;95381.53;;;2.26;92.22
23339;BME280;11841;49.368;20.962;2023-04-07T06:36:40;95390.41;;;2.25;92.84
23339;BME280;11841;49.368;20.962;2023-04-07T06:39:26;95385.19;;;2.17;92.40
23339;BME280;11841;49.368;20.962;2023-04-07T06:42:12;95390.78;;;2.14;92.30
23339;BME280;11841;49.368;20.962;2023-04-07T06:44:57;95385.19;;;2.17;92.83
23339;BME280;11841;49.368;20.962;2023-04-07T06:47:42;95386.50;;;2.21;92.68
23339;BME280;11841;49.368;20.962;2023-04-07T06:50:27;95388.81;;;2.16;92.79
23339;BME280;11841;49.368;20.962;2023-04-07T06:53:13;95388.34;;;2.13;92.91
23339;BME280;11841;49.368;20.962;2023-04-07T06:56:06;95382.50;;;2.03;92.92
23339;BME280;11841;49.368;20.962;2023-04-07T06:58:52;95389.88;;;1.99;92.89
23339;BME280;11841;49.368;20.962;2023-04-07T07:01:38;95392.97;;;2.03;93.06
23339;BME280;11841;49.368;20.962;2023-04-07T07:04:24;95384.94;;;2.04;93.12
23339;BME280;11841;49.368;20.962;2023-04-07T07:07:09;95397.22;;;2.04;93.20
23339;BME280;11841;49.368;20.962;2023-04-07T07:09:55;95397.00;;;2.13;93.12
23339;BME280;11841;49.368;20.962;2023-04-07T07:12:40;95395.19;;;2.14;93.34
23339;BME280;11841;49.368;20.962;2023-04-07T07:15:25;95398.25;;;2.17;93.48
23339;BME280;11841;49.368;20.962;2023-04-07T07:18:11;95403.84;;;2.14;93.54
23339;BME280;11841;49.368;20.962;2023-04-07T07:20:56;95409.25;;;2.13;93.56
23339;BME280;11841;49.368;20.962;2023-04-07T07:23:41;95406.47;;;2.14;93.77
23339;BME280;11841;49.368;20.962;2023-04-07T07:26:27;95407.75;;;2.18;93.90
23339;BME280;11841;49.368;20.962;2023-04-07T07:29:12;95401.19;;;2.22;93.98
23339;BME280;11841;49.368;20.962;2023-04-07T07:31:58;95402.53;;;2.18;94.29
23339;BME280;11841;49.368;20.962;2023-04-07T07:34:43;95402.41;;;2.12;95.02
23339;BME280;11841;49.368;20.962;2023-04-07T07:37:28;95400.59;;;2.12;95.09
23339;BME280;11841;49.368;20.962;2023-04-07T07:40:14;95401.81;;;2.24;94.77
23339;BME280;11841;49.368;20.962;2023-04-07T07:42:59;95393.00;;;2.25;95.66
23339;BME280;11841;49.368;20.962;2023-04-07T07:45:45;95409.03;;;2.22;95.81
23339;BME280;11841;49.368;20.962;2023-04-07T07:48:30;95411.50;;;2.24;96.11
23339;BME280;11841;49.368;20.962;2023-04-07T07:51:16;95413.34;;;2.15;96.86
23339;BME280;11841;49.368;20.962;2023-04-07T07:54:02;95411.53;;;2.16;96.83
23339;BME280;11841;49.368;20.962;2023-04-07T07:56:47;95408.13;;;2.15;96.45
23339;BME280;11841;49.368;20.962;2023-04-07T07:59:32;95415.91;;;2.23;96.85
23339;BME280;11841;49.368;20.962;2023-04-07T08:02:18;95418.34;;;2.25;96.47
23339;BME280;11841;49.368;20.962;2023-04-07T08:05:03;95422.56;;;2.26;96.54
23339;BME280;11841;49.368;20.962;2023-04-07T08:07:50;95420.97;;;2.25;96.26
23339;BME280;11841;49.368;20.962;2023-04-07T08:10:38;95411.13;;;2.27;95.86
23339;BME280;11841;49.368;20.962;2023-04-07T08:13:23;95413.22;;;2.31;95.93
23339;BME280;11841;49.368;20.962;2023-04-07T08:16:09;95405.84;;;2.35;95.78
23339;BME280;11841;49.368;20.962;2023-04-07T08:18:54;95406.97;;;2.40;95.91
23339;BME280;11841;49.368;20.962;2023-04-07T08:21:40;95406.97;;;2.40;95.90
23339;BME280;11841;49.368;20.962;2023-04-07T08:24:27;95406.97;;;2.40;96.34
23339;BME280;11841;49.368;20.962;2023-04-07T08:27:12;95401.38;;;2.43;95.97
23339;BME280;11841;49.368;20.962;2023-04-07T08:30:03;95397.06;;;2.51;95.69
23339;BME280;11841;49.368;20.962;2023-04-07T08:32:49;95402.88;;;2.61;95.68
23339;BME280;11841;49.368;20.962;2023-04-07T08:35:34;95396.94;;;2.67;95.64
23339;BME280;11841;49.368;20.962;2023-04-07T08:38:19;95392.63;;;2.74;95.35
23339;BME280;11841;49.368;20.962;2023-04-07T08:41:21;95402.13;;;2.75;95.20
23339;BME280;11841;49.368;20.962;2023-04-07T08:44:09;95396.72;;;2.76;95.28
23339;BME280;11841;49.368;20.962;2023-04-07T08:46:56;95397.88;;;2.74;95.23
23339;BME280;11841;49.368;20.962;2023-04-07T08:49:43;95402.47;;;2.72;95.27
23339;BME280;11841;49.368;20.962;2023-04-07T08:52:40;95400.66;;;2.72;95.75
23339;BME280;11841;49.368;20.962;2023-04-07T08:55:28;95399.03;;;2.71;95.86
23339;BME280;11841;49.368;20.962;2023-04-07T08:58:14;95402.81;;;2.69;95.98
23339;BME280;11841;49.368;20.962;2023-04-07T09:01:03;95398.22;;;2.71;96.09
23339;BME280;11841;49.368;20.962;2023-04-07T09:03:49;95397.88;;;2.74;96.18
23339;BME280;11841;49.368;20.962;2023-04-07T09:06:36;95407.19;;;2.76;96.76
23339;BME280;11841;49.368;20.962;2023-04-07T09:09:22;95404.84;;;2.81;96.67
23339;BME280;11841;49.368;20.962;2023-04-07T09:12:08;95402.06;;;2.83;96.23
23339;BME280;11841;49.368;20.962;2023-04-07T09:14:54;95396.91;;;2.89;96.55
23339;BME280;11841;49.368;20.962;2023-04-07T09:17:39;95401.50;;;2.87;96.94
23339;BME280;11841;49.368;20.962;2023-04-07T09:20:25;95396.47;;;2.86;97.10
23339;BME280;11841;49.368;20.962;2023-04-07T09:23:35;95405.53;;;2.75;97.15
23339;BME280;11841;49.368;20.962;2023-04-07T09:26:23;95399.03;;;2.71;98.11
23339;BME280;11841;49.368;20.962;2023-04-07T09:29:17;95404.75;;;2.75;98.29
23339;BME280;11841;49.368;20.962;2023-04-07T09:32:03;95408.34;;;2.74;99.06
23339;BME280;11841;49.368;20.962;2023-04-07T09:34:58;95404.56;;;2.76;98.90
23339;BME280;11841;49.368;20.962;2023-04-07T09:38:00;95409.25;;;2.81;99.12
23339;BME280;11841;49.368;20.962;2023-04-07T09:40:45;95409.91;;;2.83;99.23
23339;BME280;11841;49.368;20.962;2023-04-07T09:43:34;95418.69;;;2.90;99.34
23339;BME280;11841;49.368;20.962;2023-04-07T09:46:21;95412.25;;;2.92;99.07
23339;BME280;11841;49.368;20.962;2023-04-07T09:49:09;95419.47;;;2.90;98.83
23339;BME280;11841;49.368;20.962;2023-04-07T09:51:55;95421.13;;;2.91;99.24
23339;BME280;11841;49.368;20.962;2023-04-07T09:54:41;95417.22;;;2.87;100.00
23339;BME280;11841;49.368;20.962;2023-04-07T09:57:26;95428.34;;;2.89;99.90
23339;BME280;11841;49.368;20.962;2023-04-07T10:00:12;95423.09;;;2.89;99.84
23339;BME280;11841;49.368;20.962;2023-04-07T10:02:58;95426.81;;;2.95;99.53
23339;BME280;11841;49.368;20.962;2023-04-07T10:05:44;95425.75;;;3.04;99.36
23339;BME280;11841;49.368;20.962;2023-04-07T10:08:32;95423.88;;;3.12;99.45
23339;BME280;11841;49.368;20.962;2023-04-07T10:11:17;95416.13;;;3.19;98.87
23339;BME280;11841;49.368;20.962;2023-04-07T10:14:03;95416.88;;;3.27;98.42
23339;BME280;11841;49.368;20.962;2023-04-07T10:16:48;95424.88;;;3.26;98.30
23339;BME280;11841;49.368;20.962;2023-04-07T10:19:36;95426.25;;;3.22;98.91
23339;BME280;11841;49.368;20.962;2023-04-07T10:22:22;95425.50;;;3.13;99.83
23339;BME280;11841;49.368;20.962;2023-04-07T10:25:09;95418.47;;;3.14;100.00
23339;BME280;11841;49.368;20.962;2023-04-07T10:28:04;95417.09;;;3.18;100.00
23339;BME280;11841;49.368;20.962;2023-04-07T10:30:50;95421.28;;;3.27;99.47
23339;BME280;11841;49.368;20.962;2023-04-07T10:33:52;95421.94;;;3.29;99.84
23339;BME280;11841;49.368;20.962;2023-04-07T10:37:08;95425.88;;;3.25;100.00
23339;BME280;11841;49.368;20.962;2023-04-07T10:43:06;95430.84;;;3.20;100.00
23339;BME280;11841;49.368;20.962;2023-04-07T10:45:56;95437.09;;;3.19;100.00
23339;BME280;11841;49.368;20.962;2023-04-07T10:49:09;95451.91;;;3.26;100.00
23339;BME280;11841;49.368;20.962;2023-04-07T10:52:20;95450.38;;;3.32;100.00
23339;BME280;11841;49.368;20.962;2023-04-07T11:03:56;95466.59;;;3.64;99.68
23339;BME280;11841;49.368;20.962;2023-04-07T11:06:47;95468.31;;;3.72;99.55
23339;BME280;11841;49.368;20.962;2023-04-07T11:09:33;95465.97;;;3.62;100.00
23339;BME280;11841;49.368;20.962;2023-04-07T11:12:22;95468.50;;;3.56;100.00
23339;BME280;11841;49.368;20.962;2023-04-07T11:15:18;95467.22;;;3.52;100.00
23339;BME280;11841;49.368;20.962;2023-04-07T11:20:56;95469.91;;;3.44;100.00
23339;BME280;11841;49.368;20.962;2023-04-07T11:23:44;95465.84;;;3.41;100.00
23339;BME280;11841;49.368;20.962;2023-04-07T11:26:38;95470.75;;;3.44;100.00
23339;BME280;11841;49.368;20.962;2023-04-07T11:29:31;95464.59;;;3.52;100.00
23339;BME280;11841;49.368;20.962;2023-04-07T11:32:22;95472.81;;;3.49;100.00
23339;BME280;11841;49.368;20.962;2023-04-07T11:35:10;95472.44;;;3.52;100.00
23339;BME280;11841;49.368;20.962;2023-04-07T11:37:59;95476.06;;;3.51;100.00
23339;BME280;11841;49.368;20.962;2023-04-07T11:40:45;95468.56;;;3.48;100.00
23339;BME280;11841;49.368;20.962;2023-04-07T11:43:31;95470.66;;;3.52;100.00
23339;BME280;11841;49.368;20.962;2023-04-07T11:46:17;95473.81;;;3.62;100.00
23339;BME280;11841;49.368;20.962;2023-04-07T11:49:11;95472.03;;;3.63;100.00
23339;BME280;11841;49.368;20.962;2023-04-07T11:54:44;95469.03;;;3.81;100.00
23339;BME280;11841;49.368;20.962;2023-04-07T11:57:31;95470.69;;;3.82;100.00
23339;BME280;11841;49.368;20.962;2023-04-07T12:00:16;95467.59;;;3.78;100.00
23339;BME280;11841;49.368;20.962;2023-04-07T12:03:11;95475.72;;;3.83;100.00
23339;BME280;11841;49.368;20.962;2023-04-07T12:05:59;95476.97;;;3.87;100.00
23339;BME280;11841;49.368;20.962;2023-04-07T12:08:45;95478.63;;;3.88;100.00
23339;BME280;11841;49.368;20.962;2023-04-07T12:11:31;95477.19;;;4.00;100.00
23339;BME280;11841;49.368;20.962;2023-04-07T12:14:16;95475.16;;;4.02;100.00
23339;BME280;11841;49.368;20.962;2023-04-07T12:17:02;95469.31;;;4.00;100.00
23339;BME280;11841;49.368;20.962;2023-04-07T12:19:48;95482.88;;;4.04;100.00
23339;BME280;11841;49.368;20.962;2023-04-07T12:22:34;95476.81;;;4.03;100.00
23339;BME280;11841;49.368;20.962;2023-04-07T12:25:19;95479.88;;;4.07;100.00
23339;BME280;11841;49.368;20.962;2023-04-07T12:28:04;95487.13;;;4.05;100.00
23339;BME280;11841;49.368;20.962;2023-04-07T12:30:50;95480.06;;;4.05;100.00
23339;BME280;11841;49.368;20.962;2023-04-07T12:33:35;95478.88;;;4.08;100.00
23339;BME280;11841;49.368;20.962;2023-04-07T12:36:20;95478.09;;;4.07;100.00
23339;BME280;11841;49.368;20.962;2023-04-07T12:39:06;95480.41;;;4.02;100.00
23339;BME280;11841;49.368;20.962;2023-04-07T12:41:51;95478.88;;;4.08;100.00
23339;BME280;11841;49.368;20.962;2023-04-07T12:44:37;95482.13;;;4.10;100.00
23339;BME280;11841;49.368;20.962;2023-04-07T12:47:22;95478.88;;;4.08;100.00
23339;BME280;11841;49.368;20.962;2023-04-07T12:50:07;95482.97;;;4.10;100.00
23339;BME280;11841;49.368;20.962;2023-04-07T12:52:53;95482.41;;;4.15;100.00
23339;BME280;11841;49.368;20.962;2023-04-07T12:55:39;95495.59;;;4.21;100.00
23339;BME280;11841;49.368;20.962;2023-04-07T12:58:24;95498.84;;;4.23;100.00
23339;BME280;11841;49.368;20.962;2023-04-07T13:01:12;95489.97;;;4.24;100.00
23339;BME280;11841;49.368;20.962;2023-04-07T13:03:58;95493.78;;;4.22;100.00
23339;BME280;11841;49.368;20.962;2023-04-07T13:06:44;95493.88;;;4.28;100.00
23339;BME280;11841;49.368;20.962;2023-04-07T13:09:29;95498.94;;;4.30;100.00
23339;BME280;11841;49.368;20.962;2023-04-07T13:12:15;95495.22;;;4.24;100.00
23339;BME280;11841;49.368;20.962;2023-04-07T13:15:00;95494.63;;;4.22;100.00
23339;BME280;11841;49.368;20.962;2023-04-07T13:17:46;95498.84;;;4.23;100.00
23339;BME280;11841;49.368;20.962;2023-04-07T13:20:32;95504.38;;;4.28;100.00
23339;BME280;11841;49.368;20.962;2023-04-07T13:23:18;95504.63;;;4.33;100.00
23339;BME280;11841;49.368;20.962;2023-04-07T13:26:03;95508.16;;;4.40;100.00
23339;BME280;11841;49.368;20.962;2023-04-07T13:28:48;95511.94;;;4.38;100.00
23339;BME280;11841;49.368;20.962;2023-04-07T13:31:34;95510.16;;;4.38;100.00
23339;BME280;11841;49.368;20.962;2023-04-07T13:34:19;95514.56;;;4.38;100.00
23339;BME280;11841;49.368;20.962;2023-04-07T13:37:04;95513.84;;;4.44;100.00
23339;BME280;11841;49.368;20.962;2023-04-07T13:39:51;95515.66;;;4.43;99.90
23339;BME280;11841;49.368;20.962;2023-04-07T13:42:38;95525.00;;;4.46;99.69
23339;BME280;11841;49.368;20.962;2023-04-07T13:45:23;95516.75;;;4.49;98.80
23339;BME280;11841;49.368;20.962;2023-04-07T13:48:09;95521.66;;;4.37;99.00
23339;BME280;11841;49.368;20.962;2023-04-07T13:50:54;95526.91;;;4.37;98.85
23339;BME280;11841;49.368;20.962;2023-04-07T13:53:39;95518.47;;;4.42;99.36
23339;BME280;11841;49.368;20.962;2023-04-07T13:56:25;95521.66;;;4.37;99.07
23339;BME280;11841;49.368;20.962;2023-04-07T13:59:10;95516.50;;;4.29;98.93
23339;BME280;11841;49.368;20.962;2023-04-07T14:01:55;95519.56;;;4.33;99.40
23339;BME280;11841;49.368;20.962;2023-04-07T14:04:41;95521.38;;;4.32;99.67
23339;BME280;11841;49.368;20.962;2023-04-07T14:07:27;95520.75;;;4.30;99.19
23339;BME280;11841;49.368;20.962;2023-04-07T14:10:12;95525.09;;;4.23;99.56
23339;BME280;11841;49.368;20.962;2023-04-07T14:12:57;95527.09;;;4.21;99.42
23339;BME280;11841;49.368;20.962;2023-04-07T14:15:43;95529.53;;;4.23;99.07
23339;BME280;11841;49.368;20.962;2023-04-07T14:18:29;95536.88;;;4.27;99.29
23339;BME280;11841;49.368;20.962;2023-04-07T14:21:14;95530.06;;;4.33;99.43
23339;BME280;11841;49.368;20.962;2023-04-07T14:24:00;95533.41;;;4.41;98.56
23339;BME280;11841;49.368;20.962;2023-04-07T14:26:45;95528.16;;;4.41;97.66
23339;BME280;11841;49.368;20.962;2023-04-07T14:29:31;95539.19;;;4.37;98.16
23339;BME280;11841;49.368;20.962;2023-04-07T14:32:16;95530.97;;;4.40;98.69
23339;BME280;11841;49.368;20.962;2023-04-07T14:35:01;95534.13;;;4.35;98.72
23339;BME280;11841;49.368;20.962;2023-04-07T14:37:46;95538.41;;;4.22;98.84
23339;BME280;11841;49.368;20.962;2023-04-07T14:40:32;95537.66;;;4.28;99.13
23339;BME280;11841;49.368;20.962;2023-04-07T14:43:17;95538.94;;;4.32;99.25
23339;BME280;11841;49.368;20.962;2023-04-07T14:46:02;95535.41;;;4.25;98.83
23339;BME280;11841;49.368;20.962;2023-04-07T14:48:48;95542.81;;;4.21;98.86
23339;BME280;11841;49.368;20.962;2023-04-07T14:51:36;95543.66;;;4.22;98.91
23339;BME280;11841;49.368;20.962;2023-04-07T14:54:22;95541.28;;;4.27;99.10
23339;BME280;11841;49.368;20.962;2023-04-07T14:57:08;95546.09;;;4.23;98.77
23339;BME280;11841;49.368;20.962;2023-04-07T14:59:53;95546.91;;;4.24;98.56
23339;BME280;11841;49.368;20.962;2023-04-07T15:02:39;95545.38;;;4.29;98.26
23339;BME280;11841;49.368;20.962;2023-04-07T15:05:24;95538.78;;;4.19;98.41
23339;BME280;11841;49.368;20.962;2023-04-07T15:08:13;95550.81;;;4.13;98.36